Time;durP1;ratioP1;P1;durP2;ratioP2;P2;SDS_P1;SDS_P2;PMS_P1;PMS_P2;Temp;Humidity;BMP_temperature;BMP_pressure;BME280_temperature;BME280_humidity;BME280_pressure;Samples;Min_cycle;Max_cycle;Signal;HPM_P1;HPM_P2
2022/09/30 00:01:26;;;;;;;35.90;9.77;;;;;;;9.25;100.00;98448.91;5055962;28;20466;-81
2022/09/30 00:03:53;;;;;;;40.72;11.07;;;;;;;9.27;100.00;98449.50;5062544;28;20418;-80
2022/09/30 00:06:19;;;;;;;27.75;9.60;;;;;;;9.32;100.00;98445.47;5060381;28;20029;-81
2022/09/30 00:08:45;;;;;;;41.78;9.32;;;;;;;9.25;100.00;98433.19;5065400;28;20128;-81
2022/09/30 00:11:15;;;;;;;24.30;9.23;;;;;;;9.32;100.00;98451.50;5062072;28;20108;-80
2022/09/30 00:13:41;;;;;;;22.67;8.45;;;;;;;9.29;100.00;98451.91;5063272;28;20060;-81
2022/09/30 00:16:09;;;;;;;31.20;9.43;;;;;;;9.31;100.00;98455.13;5061602;28;20067;-81
2022/09/30 00:18:35;;;;;;;36.08;9.13;;;;;;;9.29;100.00;98457.94;5063393;28;20028;-80
2022/09/30 00:21:02;;;;;;;23.23;8.90;;;;;;;9.19;100.00;98441.81;5066180;28;20029;-80
2022/09/30 00:23:27;;;;;;;41.70;10.50;;;;;;;9.20;100.00;98446.03;5057145;28;20024;-80
2022/09/30 00:25:58;;;;;;;33.90;10.45;;;;;;;9.28;100.00;98453.72;5065413;28;20060;-80
2022/09/30 00:28:24;;;;;;;47.95;10.27;;;;;;;9.21;100.00;98442.41;5062857;28;20033;-80
2022/09/30 00:30:50;;;;;;;26.83;8.80;;;;;;;9.09;100.00;98429.13;5061002;28;20027;-80
2022/09/30 00:33:15;;;;;;;37.53;9.65;;;;;;;9.19;100.00;98452.28;5058667;28;20025;-81
2022/09/30 00:35:41;;;;;;;28.65;9.40;;;;;;;9.18;100.00;98455.91;5060526;28;20468;-81
2022/09/30 00:38:06;;;;;;;37.58;10.20;;;;;;;9.20;100.00;98460.97;5063950;28;20036;-82
2022/09/30 00:40:32;;;;;;;40.63;10.98;;;;;;;9.14;100.00;98450.28;5056344;28;20128;-80
2022/09/30 00:42:59;;;;;;;27.08;9.15;;;;;;;9.22;100.00;98459.75;5060639;28;20119;-79
2022/09/30 00:45:29;;;;;;;38.10;10.55;;;;;;;9.17;100.00;98449.06;5059785;28;20104;-80
2022/09/30 00:48:11;;;;;;;25.60;9.05;;;;;;;9.16;100.00;98457.13;5059803;28;20036;-80
2022/09/30 00:50:44;;;;;;;23.33;8.93;;;;;;;9.07;100.00;98459.13;5060041;28;20024;-79
2022/09/30 00:53:13;;;;;;;16.50;7.88;;;;;;;8.96;100.00;98458.69;5059956;28;20033;-80
2022/09/30 00:56:03;;;;;;;39.88;9.02;;;;;;;8.95;100.00;98456.31;5059191;28;20064;-80
2022/09/30 00:58:37;;;;;;;19.70;8.10;;;;;;;8.87;100.00;98449.44;5059703;28;20398;-80
2022/09/30 01:01:03;;;;;;;24.77;8.55;;;;;;;8.87;100.00;98449.44;5060516;28;20041;-80
2022/09/30 01:03:52;;;;;;;30.27;9.00;;;;;;;8.92;100.00;98441.78;5062891;28;20032;-80
2022/09/30 01:06:21;;;;;;;21.38;8.65;;;;;;;8.97;100.00;98449.06;5064184;28;20562;-80
2022/09/30 01:08:48;;;;;;;25.83;8.25;;;;;;;8.81;100.00;98434.50;5060291;28;20074;-81
2022/09/30 01:11:14;;;;;;;18.17;7.80;;;;;;;8.82;100.00;98438.72;5058947;28;20064;-81
2022/09/30 01:13:41;;;;;;;23.15;7.70;;;;;;;8.74;100.00;98434.47;5063353;28;20060;-81
2022/09/30 01:16:28;;;;;;;17.02;7.18;;;;;;;8.79;100.00;98447.81;5057715;28;20120;-82
2022/09/30 01:19:07;;;;;;;16.77;7.88;;;;;;;8.73;100.00;98442.53;5060387;28;20469;-82
2022/09/30 01:21:51;;;;;;;20.73;7.43;;;;;;;8.73;100.00;98450.41;5059925;28;20484;-81
2022/09/30 01:24:28;;;;;;;48.20;10.65;;;;;;;8.84;100.00;98455.84;5058798;28;20021;-81
2022/09/30 01:27:12;;;;;;;41.78;10.77;;;;;;;8.99;100.00;98455.69;5060364;28;20044;-80
2022/09/30 01:30:09;;;;;;;26.05;10.45;;;;;;;9.04;100.00;98457.72;5065233;28;20061;-81
2022/09/30 01:33:12;;;;;;;44.97;10.93;;;;;;;8.97;100.00;98460.31;5054940;28;20040;-79
2022/09/30 01:35:49;;;;;;;43.03;10.77;;;;;;;9.04;100.00;98455.09;5061729;28;20475;-79
2022/09/30 01:38:17;;;;;;;32.55;10.13;;;;;;;9.06;100.00;98458.31;5061895;28;20029;-80
2022/09/30 01:40:55;;;;;;;31.65;9.63;;;;;;;9.04;100.00;98460.34;5057502;28;20064;-81
2022/09/30 01:43:32;;;;;;;34.83;11.82;;;;;;;8.96;100.00;98453.47;5057635;28;20379;-81
2022/09/30 01:46:07;;;;;;;46.03;12.52;;;;;;;8.96;100.00;98458.69;5061551;28;20035;-81
2022/09/30 01:48:47;;;;;;;39.10;12.68;;;;;;;9.02;100.00;98454.50;5061696;28;20029;-81
2022/09/30 01:51:25;;;;;;;50.42;14.88;;;;;;;9.00;100.00;98454.69;5059219;28;20493;-81
2022/09/30 01:54:00;;;;;;;43.58;14.10;;;;;;;9.01;100.00;98450.25;5059490;28;20032;-81
2022/09/30 01:56:25;;;;;;;39.75;14.30;;;;;;;9.07;100.00;98453.91;5038673;28;20493;-81
2022/09/30 01:59:05;;;;;;;52.13;15.10;;;;;;;9.08;100.00;98452.91;5059186;28;20056;-80
2022/09/30 02:01:41;;;;;;;39.80;14.65;;;;;;;9.12;100.00;98447.03;5058633;28;20029;-81
2022/09/30 02:04:13;;;;;;;58.03;15.65;;;;;;;9.11;100.00;98447.25;5062793;28;20021;-81
2022/09/30 02:06:48;;;;;;;42.17;14.30;;;;;;;8.97;100.00;98430.72;5058950;28;20033;-80
2022/09/30 02:09:21;;;;;;;45.30;14.82;;;;;;;9.05;100.00;98451.47;5059067;28;20071;-81
2022/09/30 02:11:47;;;;;;;64.53;15.27;;;;;;;9.08;100.00;98435.34;5056234;28;20081;-81
2022/09/30 02:14:42;;;;;;;44.33;14.32;;;;;;;9.19;100.00;98441.03;5060694;28;20124;-82
2022/09/30 02:17:22;;;;;;;34.75;14.63;;;;;;;9.11;100.00;98445.44;5054466;28;20068;-81
2022/09/30 02:19:59;;;;;;;36.75;12.73;;;;;;;9.09;100.00;98434.34;5058985;28;20033;-79
2022/09/30 02:22:43;;;;;;;28.35;12.68;;;;;;;9.05;100.00;98437.59;5059576;28;20028;-80
2022/09/30 02:25:19;;;;;;;43.28;13.60;;;;;;;8.84;100.00;98423.63;5057288;28;20029;-81
2022/09/30 02:28:04;;;;;;;44.28;13.27;;;;;;;8.78;100.00;98414.78;5057513;28;20112;-79
2022/09/30 02:30:32;;;;;;;38.40;13.35;;;;;;;8.78;100.00;98398.28;5059792;28;20024;-80
2022/09/30 02:33:02;;;;;;;53.90;13.85;;;;;;;8.82;100.00;98395.06;5063528;28;20068;-82
2022/09/30 02:35:33;;;;;;;31.98;11.90;;;;;;;8.87;100.00;98407.56;5067300;28;20111;-81
2022/09/30 02:38:04;;;;;;;39.53;13.10;;;;;;;8.78;100.00;98399.09;5047311;28;20566;-80
2022/09/30 02:40:38;;;;;;;37.80;13.75;;;;;;;8.83;100.00;98406.31;5044958;28;20032;-80
2022/09/30 02:43:05;;;;;;;38.25;14.52;;;;;;;8.82;100.00;98399.47;5060833;28;20032;-79
2022/09/30 02:45:45;;;;;;;37.47;12.25;;;;;;;8.81;100.00;98397.88;5061822;28;20528;-81
2022/09/30 02:48:30;;;;;;;35.47;13.10;;;;;;;8.76;100.00;98395.03;5060703;28;20029;-80
2022/09/30 02:51:05;;;;;;;35.08;13.40;;;;;;;8.67;100.00;98390.00;5067361;28;20028;-78
2022/09/30 02:53:39;;;;;;;33.30;12.63;;;;;;;8.68;100.00;98394.25;5062183;28;20449;-80
2022/09/30 02:56:09;;;;;;;28.45;10.55;;;;;;;8.64;100.00;98392.22;5057731;28;20032;-80
2022/09/30 02:58:38;;;;;;;29.70;10.63;;;;;;;8.52;100.00;98384.13;5067388;28;20032;-81
2022/09/30 03:01:07;;;;;;;38.00;11.68;;;;;;;8.55;100.00;98386.34;5069328;28;20544;-80
2022/09/30 03:03:39;;;;;;;27.10;10.45;;;;;;;8.46;100.00;98374.44;5062181;28;20399;-79
2022/09/30 03:06:05;;;;;;;25.23;10.65;;;;;;;8.46;100.00;98369.22;5063561;28;20032;-80
2022/09/30 03:08:30;;;;;;;39.90;12.27;;;;;;;8.42;100.00;98366.97;5063836;28;20105;-80
2022/09/30 03:10:56;;;;;;;35.60;12.95;;;;;;;8.57;100.00;98366.03;5058940;28;20025;-80
2022/09/30 03:13:44;;;;;;;43.30;14.32;;;;;;;8.65;100.00;98378.94;5067630;28;20025;-81
2022/09/30 03:16:28;;;;;;;44.85;13.27;;;;;;;8.64;100.00;98379.91;5039124;28;20049;-81
2022/09/30 03:19:16;;;;;;;;;;;;;;;8.74;100.00;98366.44;5065551;28;20033;-79
2022/09/30 03:22:18;;;;;;;32.10;12.73;;;;;;;8.66;100.00;98359.63;5066300;28;19916;-79
2022/09/30 03:25:05;;;;;;;32.35;11.38;;;;;;;8.70;100.00;98365.25;5062579;28;20040;-78
2022/09/30 03:27:41;;;;;;;25.98;10.73;;;;;;;8.70;100.00;98366.06;5063385;28;20029;-79
2022/09/30 03:30:12;;;;;;;21.05;10.18;;;;;;;8.61;100.00;98364.63;5062775;28;20414;-79
2022/09/30 03:32:59;;;;;;;28.52;10.23;;;;;;;8.62;100.00;98368.84;5064317;28;20024;-80
2022/09/30 03:35:44;;;;;;;19.02;9.30;;;;;;;8.55;100.00;98363.63;5066386;28;20024;-81
2022/09/30 03:38:25;;;;;;;24.38;9.63;;;;;;;8.56;100.00;98344.31;5062308;28;20039;-80
2022/09/30 03:41:16;;;;;;;14.82;9.18;;;;;;;8.55;100.00;98347.09;5065169;28;20047;-81
2022/09/30 03:44:10;;;;;;;20.08;8.75;;;;;;;8.52;100.00;98337.84;5058949;28;20043;-81
2022/09/30 03:46:45;;;;;;;19.88;8.80;;;;;;;8.49;100.00;98343.44;5034488;28;20032;-81
2022/09/30 03:49:16;;;;;;;25.42;8.77;;;;;;;8.40;100.00;98318.50;5056725;28;20490;-81
2022/09/30 03:51:45;;;;;;;17.45;8.48;;;;;;;8.50;100.00;98328.59;5065138;28;20043;-81
2022/09/30 03:54:13;;;;;;;23.30;9.00;;;;;;;8.39;100.00;98309.81;5062836;28;20599;-80
2022/09/30 03:56:42;;;;;;;20.27;8.88;;;;;;;8.46;100.00;98322.13;5059771;28;20041;-80
2022/09/30 03:59:12;;;;;;;23.70;8.88;;;;;;;8.50;100.00;98318.91;5061611;28;20501;-80
2022/09/30 04:01:38;;;;;;;21.95;8.57;;;;;;;8.48;100.00;98292.13;5059167;28;20061;-81
2022/09/30 04:04:04;;;;;;;20.10;9.00;;;;;;;8.51;100.00;98293.59;5065812;28;20028;-81
2022/09/30 04:06:30;;;;;;;22.60;9.13;;;;;;;8.56;100.00;98291.19;5059087;28;20079;-81
2022/09/30 04:08:56;;;;;;;30.58;9.25;;;;;;;8.61;100.00;98291.38;5062240;28;20032;-81
2022/09/30 04:11:21;;;;;;;28.38;8.40;;;;;;;8.66;100.00;98291.59;5058726;28;20477;-81
2022/09/30 04:13:48;;;;;;;31.48;9.40;;;;;;;8.75;100.00;98302.69;5063999;28;20441;-82
2022/09/30 04:16:13;;;;;;;28.27;9.98;;;;;;;8.71;100.00;98281.31;5063426;28;20036;-80
2022/09/30 04:18:39;;;;;;;26.23;8.93;;;;;;;8.83;100.00;98297.22;5063397;28;20482;-81
2022/09/30 04:21:10;;;;;;;26.52;7.90;;;;;;;8.96;100.00;98295.63;5063398;28;20079;-82
2022/09/30 04:23:38;;;;;;;20.25;8.35;;;;;;;8.93;100.00;98290.78;5064411;28;20390;-80
2022/09/30 04:26:05;;;;;;;21.08;8.35;;;;;;;8.90;100.00;98281.53;5065158;28;20029;-79
2022/09/30 04:28:31;;;;;;;27.95;8.18;;;;;;;8.88;100.00;98272.25;5064387;28;20029;-82
2022/09/30 04:30:59;;;;;;;26.70;8.50;;;;;;;8.86;100.00;98269.88;5059799;28;20021;-80
2022/09/30 04:33:24;;;;;;;24.35;8.77;;;;;;;8.93;100.00;98275.88;5058684;28;20028;-80
2022/09/30 04:35:57;;;;;;;24.52;8.77;;;;;;;8.93;100.00;98265.41;5063322;28;20056;-81
2022/09/30 04:38:24;;;;;;;18.85;8.20;;;;;;;8.98;100.00;98278.69;5064892;28;20040;-80
2022/09/30 04:40:51;;;;;;;26.88;10.05;;;;;;;9.03;100.00;98279.88;5061802;28;20131;-81
2022/09/30 04:43:18;;;;;;;30.50;10.80;;;;;;;8.94;100.00;98279.28;5059657;28;20029;-79
2022/09/30 04:45:45;;;;;;;35.53;12.45;;;;;;;8.96;100.00;98267.63;5066108;28;20032;-80
2022/09/30 04:48:12;;;;;;;37.03;12.70;;;;;;;9.00;100.00;98258.34;5064857;28;20074;-81
2022/09/30 04:50:38;;;;;;;42.08;12.38;;;;;;;9.08;100.00;98259.94;5060032;28;20033;-82
2022/09/30 04:53:04;;;;;;;28.92;11.80;;;;;;;9.09;100.00;98258.94;5060214;28;20040;-81
2022/09/30 04:55:29;;;;;;;32.10;13.70;;;;;;;9.13;100.00;98256.72;5060632;28;20029;-81
2022/09/30 04:57:55;;;;;;;28.73;12.30;;;;;;;9.12;100.00;98252.50;5056735;28;20127;-79
2022/09/30 05:00:21;;;;;;;29.83;12.38;;;;;;;9.11;100.00;98243.03;5059117;28;20078;-81
2022/09/30 05:02:47;;;;;;;23.35;10.90;;;;;;;9.07;100.00;98223.53;5063814;28;20035;-80
2022/09/30 05:05:13;;;;;;;28.55;10.70;;;;;;;9.16;100.00;98245.06;5059258;28;20032;-79
2022/09/30 05:07:39;;;;;;;26.58;10.05;;;;;;;9.19;100.00;98219.25;5061710;28;20258;-81
2022/09/30 05:10:07;;;;;;;20.55;9.27;;;;;;;9.21;100.00;98224.28;5062414;28;20118;-80
2022/09/30 05:12:33;;;;;;;26.35;9.77;;;;;;;9.18;100.00;98215.03;5061887;28;20029;-79
2022/09/30 05:14:59;;;;;;;34.78;9.38;;;;;;;9.13;100.00;98212.22;5063067;28;20037;-81
2022/09/30 05:17:24;;;;;;;29.48;9.60;;;;;;;9.09;100.00;98195.31;5063416;28;20040;-81
2022/09/30 05:19:50;;;;;;;22.58;9.23;;;;;;;9.18;100.00;98203.75;5063331;28;20406;-80
2022/09/30 05:22:15;;;;;;;28.67;9.20;;;;;;;9.09;100.00;98187.47;5058735;28;20052;-80
2022/09/30 05:24:41;;;;;;;19.13;8.55;;;;;;;9.13;100.00;98186.03;5064699;28;20032;-81
2022/09/30 05:27:07;;;;;;;23.10;8.15;;;;;;;9.24;100.00;98193.28;5061223;28;20025;-80
2022/09/30 05:29:32;;;;;;;20.45;8.55;;;;;;;9.22;100.00;98189.25;5064864;28;20028;-81
2022/09/30 05:32:00;;;;;;;23.88;8.10;;;;;;;9.21;100.00;98177.94;5058658;28;20028;-81
2022/09/30 05:34:25;;;;;;;14.95;7.93;;;;;;;9.27;100.00;98179.75;5062036;28;20497;-81
2022/09/30 05:36:52;;;;;;;15.00;7.70;;;;;;;9.13;100.00;98152.00;5063273;28;20055;-81
2022/09/30 05:39:18;;;;;;;22.88;8.60;;;;;;;9.20;100.00;98155.41;5060214;28;20032;-80
2022/09/30 05:41:43;;;;;;;23.80;8.52;;;;;;;9.27;100.00;98164.06;5062769;28;20390;-80
2022/09/30 05:44:09;;;;;;;21.10;7.43;;;;;;;9.25;100.00;98146.94;5057506;28;20039;-80
2022/09/30 05:46:34;;;;;;;21.52;8.82;;;;;;;9.29;100.00;98153.34;5061322;28;20032;-82
2022/09/30 05:49:00;;;;;;;22.25;9.02;;;;;;;9.25;100.00;98150.38;5062896;28;20548;-80
2022/09/30 05:51:25;;;;;;;21.48;8.60;;;;;;;9.34;100.00;98155.34;5058978;28;20067;-79
2022/09/30 05:53:51;;;;;;;23.10;9.93;;;;;;;9.27;100.00;98150.94;5060128;28;20051;-79
2022/09/30 05:56:17;;;;;;;27.42;10.07;;;;;;;9.25;100.00;98152.97;5057939;28;20032;-80
2022/09/30 05:58:44;;;;;;;26.15;9.35;;;;;;;9.23;100.00;98148.94;5060657;28;20025;-81
2022/09/30 06:01:12;;;;;;;29.98;13.52;;;;;;;9.36;100.00;98146.28;5061323;28;20090;-81
2022/09/30 06:03:38;;;;;;;39.03;14.38;;;;;;;9.38;100.00;98138.19;5057451;28;20033;-80
2022/09/30 06:06:05;;;;;;;35.47;12.00;;;;;;;9.42;100.00;98142.00;5051398;28;20078;-80
2022/09/30 06:08:31;;;;;;;25.80;11.35;;;;;;;9.38;100.00;98122.50;5064157;28;20056;-81
2022/09/30 06:10:58;;;;;;;56.42;15.63;;;;;;;9.29;100.00;98129.78;5066443;28;20596;-80
2022/09/30 06:13:25;;;;;;;35.88;14.60;;;;;;;9.47;100.00;98136.97;5064742;28;20029;-81
2022/09/30 06:16:01;;;;;;;42.25;17.63;;;;;;;9.48;100.00;98112.38;5066962;28;20045;-81
2022/09/30 06:18:28;;;;;;;37.17;19.08;;;;;;;9.49;100.00;98124.47;5060255;28;20492;-80
2022/09/30 06:20:58;;;;;;;34.30;14.38;;;;;;;9.61;100.00;98124.59;5048003;28;20454;-80
2022/09/30 06:23:23;;;;;;;42.13;14.88;;;;;;;9.54;100.00;98119.38;5067319;28;20037;-80
2022/09/30 06:25:50;;;;;;;31.30;14.25;;;;;;;9.67;100.00;98130.81;5065698;28;20394;-80
2022/09/30 06:28:17;;;;;;;27.30;14.20;;;;;;;9.63;100.00;98121.75;5068692;28;20200;-79
2022/09/30 06:30:43;;;;;;;32.75;16.83;;;;;;;9.66;100.00;98113.47;5062727;28;20163;-81
2022/09/30 06:33:09;;;;;;;34.25;14.50;;;;;;;9.77;100.00;98120.66;5060583;28;20025;-80
2022/09/30 06:35:34;;;;;;;29.10;14.35;;;;;;;9.89;100.00;98119.97;5062589;28;20032;-79
2022/09/30 06:38:00;;;;;;;40.85;15.93;;;;;;;9.91;100.00;98108.25;5065305;28;20029;-81
2022/09/30 06:40:25;;;;;;;34.78;13.60;;;;;;;10.02;100.00;98087.63;5058151;28;20040;-80
2022/09/30 06:42:57;;;;;;;47.47;15.57;;;;;;;10.01;100.00;98099.91;5060984;28;20037;-80
2022/09/30 06:45:22;;;;;;;39.58;15.05;;;;;;;10.11;100.00;98076.66;5060760;28;20035;-80
2022/09/30 06:47:50;;;;;;;40.58;15.20;;;;;;;10.07;100.00;98085.97;5059497;28;20037;-80
2022/09/30 06:50:17;;;;;;;35.97;15.60;;;;;;;10.34;100.00;98064.72;5062835;28;20031;-80
2022/09/30 06:52:43;;;;;;;40.20;13.85;;;;;;;10.49;100.00;98071.50;5066077;28;20490;-77
2022/09/30 06:55:08;;;;;;;45.40;14.63;;;;;;;10.43;100.00;98073.16;5063425;28;20042;-79
2022/09/30 06:57:34;;;;;;;34.03;15.05;;;;;;;10.55;100.00;98062.75;5058854;28;20025;-80
2022/09/30 07:00:01;;;;;;;41.35;16.83;;;;;;;10.58;100.00;98062.28;5063771;28;20654;-77
2022/09/30 07:02:28;;;;;;;35.58;14.43;;;;;;;10.67;100.00;98047.88;5062213;28;20397;-79
2022/09/30 07:04:53;;;;;;;41.53;17.58;;;;;;;10.69;100.00;98050.25;5062616;28;20486;-79
2022/09/30 07:07:20;;;;;;;38.00;16.95;;;;;;;10.69;100.00;98045.00;5059556;28;20044;-80
2022/09/30 07:09:46;;;;;;;41.63;17.15;;;;;;;10.78;100.00;98043.72;5070268;28;20112;-79
2022/09/30 07:12:11;;;;;;;39.58;16.60;;;;;;;10.86;100.00;98040.00;5046257;28;20108;-79
2022/09/30 07:14:37;;;;;;;50.75;19.63;;;;;;;10.96;100.00;98045.50;5059268;28;20601;-79
2022/09/30 07:17:05;;;;;;;35.28;16.92;;;;;;;10.91;100.00;98037.50;5064185;28;20029;-79
2022/09/30 07:19:33;;;;;;;46.30;17.52;;;;;;;11.00;100.00;98030.13;5063249;28;20044;-79
2022/09/30 07:22:26;;;;;;;38.67;16.52;;;;;;;11.07;100.00;98043.94;5068297;28;20028;-79
2022/09/30 07:24:44;;;;;;;41.65;16.98;;;;;;;10.98;100.00;98027.69;5060884;28;20033;-79
2022/09/30 07:27:12;;;;;;;40.88;16.45;;;;;;;11.09;100.00;98026.13;5048762;28;20367;-79
2022/09/30 07:29:41;;;;;;;31.67;15.10;;;;;;;11.14;100.00;98041.25;5059219;28;20037;-79
2022/09/30 07:32:07;;;;;;;48.67;16.58;;;;;;;11.05;100.00;98034.72;5058017;28;20552;-79
2022/09/30 07:34:35;;;;;;;34.75;16.23;;;;;;;11.03;100.00;98027.03;5058433;28;20029;-79
2022/09/30 07:37:02;;;;;;;41.03;16.90;;;;;;;11.04;100.00;98035.72;5068113;28;20078;-78
2022/09/30 07:39:28;;;;;;;35.25;15.60;;;;;;;11.03;100.00;98034.13;5058643;28;20082;-78
2022/09/30 07:41:53;;;;;;;31.00;16.80;;;;;;;11.11;100.00;98010.19;5053571;28;20029;-78
2022/09/30 07:44:19;;;;;;;30.40;15.05;;;;;;;11.04;100.00;98009.47;5062727;28;20494;-78
2022/09/30 07:46:44;;;;;;;29.13;15.32;;;;;;;11.07;100.00;97999.31;5064959;28;20478;-78
2022/09/30 07:49:22;;;;;;;27.70;14.80;;;;;;;11.17;100.00;97998.75;5060599;28;20766;-77
2022/09/30 07:51:49;;;;;;;33.78;14.90;;;;;;;11.20;100.00;98003.59;5068621;28;20020;-78
2022/09/30 07:54:17;;;;;;;32.40;14.93;;;;;;;11.30;100.00;98000.41;5062431;28;20036;-77
2022/09/30 07:56:45;;;;;;;30.92;14.38;;;;;;;11.42;100.00;97985.47;5044562;28;20025;-78
2022/09/30 07:59:12;;;;;;;28.70;13.80;;;;;;;11.49;100.00;97990.63;5057570;28;20029;-77
2022/09/30 08:01:39;;;;;;;31.17;15.23;;;;;;;11.36;100.00;97990.81;5056232;28;20040;-78
2022/09/30 08:04:08;;;;;;;30.63;14.25;;;;;;;11.61;100.00;97998.53;5062286;28;20028;-78
2022/09/30 08:06:44;;;;;;;23.83;13.63;;;;;;;11.66;100.00;97984.72;5062309;28;20086;-77
2022/09/30 08:09:10;;;;;;;24.60;12.63;;;;;;;11.67;100.00;97971.31;5059110;28;20033;-79
2022/09/30 08:11:37;;;;;;;24.13;11.40;;;;;;;11.54;100.00;97956.56;5058576;28;20029;-79
2022/09/30 08:14:04;;;;;;;21.38;10.93;;;;;;;11.55;100.00;97965.28;5059941;28;20101;-77
2022/09/30 08:16:29;;;;;;;21.05;11.98;;;;;;;11.49;100.00;97956.47;5059795;28;20727;-78
2022/09/30 08:18:57;;;;;;;22.35;12.05;;;;;;;11.48;100.00;97946.97;5061839;28;20024;-77
2022/09/30 08:21:24;;;;;;;21.63;12.43;;;;;;;11.56;100.00;97954.50;5093216;28;20045;-79
2022/09/30 08:23:50;;;;;;;21.35;12.10;;;;;;;11.56;100.00;97959.78;5054771;28;20089;-78
2022/09/30 08:26:16;;;;;;;24.27;12.40;;;;;;;11.35;100.00;97936.69;5046101;28;20506;-78
2022/09/30 08:28:45;;;;;;;21.33;11.43;;;;;;;11.66;100.00;97942.66;5063650;28;20085;-78
2022/09/30 08:31:17;;;;;;;22.77;12.68;;;;;;;11.63;100.00;97946.53;5059990;28;20060;-78
2022/09/30 08:33:43;;;;;;;23.60;13.55;;;;;;;11.67;100.00;97950.28;5057004;28;20380;-78
2022/09/30 08:36:12;;;;;;;21.83;13.45;;;;;;;11.67;100.00;97952.13;5060380;28;20024;-78
2022/09/30 08:38:38;;;;;;;22.08;13.20;;;;;;;11.62;100.00;97936.25;5056635;28;20035;-79
2022/09/30 08:41:18;;;;;;;21.80;13.45;;;;;;;11.73;100.00;97938.06;5062998;28;20519;-78
2022/09/30 08:44:13;;;;;;;23.63;13.43;;;;;;;11.61;100.00;97914.41;5057621;28;20025;-79
2022/09/30 08:46:41;;;;;;;24.45;14.25;;;;;;;11.68;100.00;97930.06;5057181;28;20055;-78
2022/09/30 08:49:35;;;;;;;28.52;16.20;;;;;;;11.70;100.00;97928.00;5053024;28;20075;-77
2022/09/30 08:52:02;;;;;;;24.42;15.05;;;;;;;11.82;100.00;97926.19;5060532;28;20051;-79
2022/09/30 08:54:33;;;;;;;27.23;15.15;;;;;;;11.85;100.00;97920.47;5057470;28;20083;-77
2022/09/30 08:57:02;;;;;;;26.77;14.70;;;;;;;11.73;100.00;97906.53;5059600;28;20033;-77
2022/09/30 09:00:04;;;;;;;27.13;15.82;;;;;;;11.88;100.00;97907.88;5059376;28;20051;-77
2022/09/30 09:02:33;;;;;;;28.50;14.27;;;;;;;11.89;100.00;97909.47;5033526;28;20041;-78
2022/09/30 09:05:05;;;;;;;23.08;15.20;;;;;;;11.98;100.00;97900.19;5059742;28;20040;-77
2022/09/30 09:07:46;;;;;;;29.13;15.85;;;;;;;12.05;100.00;97908.00;5059502;28;20108;-77
2022/09/30 09:10:17;;;;;;;27.65;15.60;;;;;;;12.17;100.00;97889.56;5062488;28;20029;-77
2022/09/30 09:12:51;;;;;;;25.83;15.52;;;;;;;12.07;100.00;97890.97;5060501;28;20160;-78
2022/09/30 09:15:40;;;;;;;27.13;16.38;;;;;;;11.91;100.00;97881.13;5063207;28;20101;-77
2022/09/30 09:18:40;;;;;;;25.63;16.95;;;;;;;12.16;100.00;97878.25;5056287;28;20025;-77
2022/09/30 09:21:15;;;;;;;26.17;15.25;;;;;;;12.22;100.00;97863.38;5061135;28;20390;-78
2022/09/30 09:23:41;;;;;;;23.25;15.65;;;;;;;12.20;100.00;97857.53;5061351;28;20449;-77
2022/09/30 09:26:10;;;;;;;28.60;16.05;;;;;;;12.20;100.00;97831.22;5056867;28;20035;-78
2022/09/30 09:29:18;;;;;;;28.55;17.05;;;;;;;12.06;100.00;97831.50;5061428;28;21974;-78
2022/09/30 09:31:44;;;;;;;31.35;17.95;;;;;;;12.05;100.00;97822.00;5051477;28;20036;-77
2022/09/30 09:34:14;;;;;;;26.73;17.42;;;;;;;11.91;100.00;97824.09;5062069;28;20540;-77
2022/09/30 09:37:13;;;;;;;31.83;20.08;;;;;;;11.92;100.00;97809.09;5061031;28;20467;-77
2022/09/30 09:39:54;;;;;;;29.88;19.17;;;;;;;12.32;100.00;97816.19;5066502;28;20428;-79
2022/09/30 09:42:37;;;;;;;27.67;18.92;;;;;;;12.39;100.00;97806.31;5059144;28;20040;-78
2022/09/30 09:45:23;;;;;;;;;;;;;;;12.46;100.00;97792.22;5063162;28;20432;-78
2022/09/30 09:47:50;;;;;;;33.47;20.15;;;;;;;12.34;100.00;97768.59;5060398;28;19916;-79
2022/09/30 09:50:24;;;;;;;31.75;20.40;;;;;;;12.40;100.00;97763.19;5062013;28;20046;-78
2022/09/30 09:52:58;;;;;;;34.58;19.92;;;;;;;12.30;100.00;97762.22;5064687;28;20040;-78
2022/09/30 09:55:24;;;;;;;33.13;18.98;;;;;;;12.29;100.00;97745.63;5064368;28;20588;-78
2022/09/30 09:58:12;;;;;;;31.48;20.38;;;;;;;12.23;100.00;97757.09;5067042;28;20029;-79
2022/09/30 10:03:20;;;;;;;34.25;20.70;;;;;;;12.35;100.00;97735.97;5066970;28;20041;-78
2022/09/30 10:06:03;;;;;;;34.75;21.58;;;;;;;12.26;100.00;97735.56;5048978;28;20041;-78
2022/09/30 10:08:31;;;;;;;35.28;21.75;;;;;;;12.46;100.00;97719.31;5065359;28;20032;-79
2022/09/30 10:11:02;;;;;;;36.47;22.00;;;;;;;12.43;100.00;97719.78;5067775;28;20021;-80
2022/09/30 10:13:36;;;;;;;34.65;22.00;;;;;;;12.55;100.00;97706.53;5069948;28;20036;-78
2022/09/30 10:16:02;;;;;;;33.65;21.08;;;;;;;12.65;100.00;97711.97;5065917;28;20044;-77
2022/09/30 10:18:34;;;;;;;33.88;21.23;;;;;;;12.78;100.00;97704.78;5062329;28;20036;-78
2022/09/30 10:21:22;;;;;;;37.47;20.85;;;;;;;12.68;100.00;97700.19;5067644;28;20033;-78
2022/09/30 10:23:47;;;;;;;32.17;20.90;;;;;;;12.73;100.00;97697.59;5067803;28;20032;-78
2022/09/30 10:26:13;;;;;;;32.90;19.70;;;;;;;12.94;100.00;97698.69;5066541;28;20040;-77
2022/09/30 10:29:03;;;;;;;31.20;19.80;;;;;;;13.04;100.00;97691.97;5066858;28;20138;-78
2022/09/30 10:31:32;;;;;;;29.90;19.67;;;;;;;12.86;100.00;97684.09;5066399;28;20029;-78
2022/09/30 10:34:25;;;;;;;31.48;19.52;;;;;;;12.76;100.00;97673.44;5063930;28;20552;-78
2022/09/30 10:36:52;;;;;;;38.25;19.73;;;;;;;12.94;100.00;97671.56;5058319;28;20025;-77
2022/09/30 10:39:30;;;;;;;33.00;19.77;;;;;;;12.98;100.00;97662.94;5062569;28;20035;-77
2022/09/30 10:42:21;;;;;;;30.88;19.77;;;;;;;13.02;100.00;97646.63;5061185;28;20037;-78
2022/09/30 10:44:54;;;;;;;28.50;19.63;;;;;;;12.94;100.00;97651.25;5057041;28;20044;-78
2022/09/30 10:47:30;;;;;;;34.50;20.65;;;;;;;13.13;100.00;97643.88;5059289;28;20036;-77
2022/09/30 10:50:06;;;;;;;33.38;21.67;;;;;;;13.02;100.00;97625.56;5064152;28;20029;-77
2022/09/30 10:52:43;;;;;;;29.70;20.48;;;;;;;13.02;100.00;97631.63;5066273;28;20373;-78
2022/09/30 10:55:18;;;;;;;30.95;19.20;;;;;;;13.09;100.00;97615.63;5066695;28;20045;-78
2022/09/30 10:57:45;;;;;;;33.92;21.42;;;;;;;12.93;100.00;97612.03;5063072;28;20040;-77
2022/09/30 11:00:17;;;;;;;27.65;19.02;;;;;;;13.16;100.00;97621.50;5061954;28;20536;-77
2022/09/30 11:03:15;;;;;;;33.97;22.50;;;;;;;13.13;100.00;97599.09;5062691;28;20032;-77
2022/09/30 11:05:44;;;;;;;30.65;19.63;;;;;;;13.13;100.00;97585.09;5064503;28;20038;-77
2022/09/30 11:08:12;;;;;;;31.65;20.65;;;;;;;13.43;100.00;97589.16;5064103;28;20618;-77
2022/09/30 11:11:04;;;;;;;26.83;19.70;;;;;;;13.28;100.00;97568.69;5048161;28;20124;-77
2022/09/30 11:13:42;;;;;;;33.08;19.60;;;;;;;13.43;100.00;97554.88;5063116;28;20028;-77
2022/09/30 11:16:07;;;;;;;33.22;20.60;;;;;;;13.34;100.00;97548.44;5064226;28;20048;-78
2022/09/30 11:18:59;;;;;;;36.58;19.75;;;;;;;13.43;100.00;97546.97;5061967;28;20557;-77
2022/09/30 11:21:53;;;;;;;28.17;18.67;;;;;;;13.52;100.00;97539.41;5056329;28;20021;-77
2022/09/30 11:24:45;;;;;;;34.17;19.35;;;;;;;13.35;100.00;97532.38;5057050;28;20060;-77
2022/09/30 11:27:26;;;;;;;23.73;13.07;;;;;;;13.21;100.00;97531.19;5061472;28;20481;-77
2022/09/30 11:30:01;;;;;;;33.08;17.70;;;;;;;13.23;100.00;97522.00;5062696;28;20029;-78
2022/09/30 11:32:39;;;;;;;29.15;18.67;;;;;;;13.40;100.00;97521.09;5059481;28;20866;-76
2022/09/30 11:35:23;;;;;;;24.63;17.45;;;;;;;13.47;100.00;97510.38;5056220;28;20076;-77
2022/09/30 11:38:03;;;;;;;;;;;;;;;13.41;100.00;97512.16;5054802;28;20029;-78
2022/09/30 11:40:37;;;;;;;23.50;16.05;;;;;;;13.35;100.00;97498.13;5062278;28;19921;-76
2022/09/30 11:43:15;;;;;;;26.63;17.40;;;;;;;13.51;100.00;97501.69;5057607;28;20033;-78